Terminal Aerodrome Forecast
Issued by NWS

Home | Current Version | Previous Version | Text Only | Print | Product List | Glossary On
Versions: 1 2 3 4 5 6 7 8 9 10 11 12 13 14 15 16 17 18 19 20
000
FTUS43 KMPX 181700
TAFAXN
TAF
KAXN 181729Z 1818/1918 13016G24KT P6SM BKN050 OVC100
     FM190900 15017G25KT 6SM -SHRA BR SCT025 OVC035
     FM191200 16017G25KT 5SM -SHRA BR SCT015 OVC025
     FM191400 20015G21KT P6SM SCT020 OVC040=

USA.gov is the U.S. government's official web portal to all federal, state and local government web resources and services.